X  Lukk Metar værinformasjon om luftfart        LGTS Thessaloniki Macedonia International
Temperatur
28°C Temperatur
16°C Duggpunkt
48% Luftfuktighet



Vind
6 KM/T
3 MPT
1 M/S
3 KNP



110°
ØSØ
Nåværende forhold

Mostly Sunny For det meste sol
Trykk 1008 (hPa) - 29.76 (inHg)
Sikt 6 (mil) - 10 (km)
Flyplass
Flyplass-kode LGTS

Plassering: Thessaloniki Macedonia International
Avstand: 85 (km)

Metar:
METAR LGTS 140520Z 11003KT 9999 FEW025 28/16 Q1008 NOSIG

Tid: 14-06-2024 08:20 EEST